createdAt,value
2022-10-20T00:02:25.770Z,100151.57
2022-10-20T00:04:56.497Z,100154.08
2022-10-20T00:07:29.588Z,100146.73
2022-10-20T00:10:00.211Z,100146.42
2022-10-20T00:12:30.811Z,100150.79
2022-10-20T00:15:01.578Z,100150.21
2022-10-20T00:17:32.335Z,100145.39
2022-10-20T00:20:03.093Z,100142.53
2022-10-20T00:22:34.311Z,100145.73
2022-10-20T00:25:05.741Z,100139.59
2022-10-20T00:27:36.395Z,100141.04
2022-10-20T00:30:08.764Z,100143.20
2022-10-20T00:32:39.351Z,100137.67
2022-10-20T00:35:11.545Z,100132.28
2022-10-20T00:37:42.193Z,100127.98
2022-10-20T00:40:14.189Z,100125.54
2022-10-20T00:42:48.506Z,100126.96
2022-10-20T00:45:21.641Z,100125.86
2022-10-20T00:47:56.882Z,100123.55
2022-10-20T00:50:33.073Z,100121.45
2022-10-20T00:53:05.769Z,100117.64
2022-10-20T00:55:41.955Z,100119.85
2022-10-20T00:58:12.743Z,100121.13
2022-10-20T01:00:45.790Z,100122.44
2022-10-20T01:03:21.919Z,100107.20
2022-10-20T01:05:52.727Z,100115.34
2022-10-20T01:08:23.320Z,100118.97
2022-10-20T01:11:04.590Z,100120.75
2022-10-20T01:13:48.168Z,100121.87
2022-10-20T01:16:30.976Z,100114.04
2022-10-20T01:19:11.505Z,100113.47
2022-10-20T01:22:16.626Z,100113.30
2022-10-20T01:25:02.204Z,100110.77
2022-10-20T01:27:37.838Z,100107.39
2022-10-20T01:30:18.592Z,100105.30
2022-10-20T01:33:09.899Z,100106.67
2022-10-20T01:35:56.483Z,100106.21
2022-10-20T01:38:36.962Z,100105.24
2022-10-20T01:41:14.033Z,100101.73
2022-10-20T01:43:47.776Z,100100.28
2022-10-20T01:46:22.673Z,100102.80
2022-10-20T01:48:55.084Z,100097.79
2022-10-20T01:51:25.923Z,100097.25
2022-10-20T01:53:56.748Z,100098.21
2022-10-20T01:56:35.737Z,100094.20
2022-10-20T01:59:23.897Z,100092.96
2022-10-20T02:02:13.085Z,100087.55
2022-10-20T02:04:55.141Z,100086.78
2022-10-20T02:07:29.282Z,100085.61
2022-10-20T02:10:05.969Z,100084.96
2022-10-20T02:12:40.457Z,100087.63
2022-10-20T02:15:16.150Z,100082.89
2022-10-20T02:17:50.453Z,100081.76
2022-10-20T02:20:22.562Z,100080.41
2022-10-20T02:22:53.859Z,100078.70
2022-10-20T02:25:25.954Z,100079.23
2022-10-20T02:30:35.393Z,100070.54
2022-10-20T02:33:07.376Z,100068.33
2022-10-20T02:35:37.984Z,100062.58
2022-10-20T02:38:09.058Z,100058.09
2022-10-20T02:40:40.004Z,100054.48
2022-10-20T02:43:10.636Z,100051.05
2022-10-20T02:45:41.374Z,100047.91
2022-10-20T02:48:12.020Z,100050.48
2022-10-20T02:50:42.851Z,100045.26
2022-10-20T02:53:13.713Z,100045.11
2022-10-20T02:55:44.610Z,100046.09
2022-10-20T02:58:15.578Z,100047.27
2022-10-20T03:00:46.184Z,100052.08
2022-10-20T03:03:16.780Z,100055.13
2022-10-20T03:05:47.789Z,100055.06
2022-10-20T03:08:18.695Z,100046.96
2022-10-20T03:10:49.782Z,100045.39
2022-10-20T03:13:23.598Z,100046.55
2022-10-20T03:15:54.257Z,100043.38
2022-10-20T03:18:24.914Z,100044.17
2022-10-20T03:20:55.767Z,100045.66
2022-10-20T03:23:26.621Z,100044.19
2022-10-20T03:26:04.510Z,100039.56
2022-10-20T03:28:36.491Z,100038.11
2022-10-20T03:31:07.429Z,100040.61
2022-10-20T03:33:38.085Z,100040.15
2022-10-20T03:36:10.606Z,100037.12
2022-10-20T03:38:43.608Z,100034.70
2022-10-20T03:41:14.482Z,100029.48
2022-10-20T03:43:45.605Z,100029.80
2022-10-20T03:46:16.470Z,100031.67
2022-10-20T03:48:47.322Z,100028.67
2022-10-20T03:51:18.061Z,100028.52
2022-10-20T03:53:48.763Z,100027.17
2022-10-20T03:56:21.352Z,100027.99
2022-10-20T03:58:52.326Z,100020.72
2022-10-20T04:01:32.827Z,100016.84
2022-10-20T04:04:03.561Z,100009.45
2022-10-20T04:06:34.371Z,100013.86
2022-10-20T04:09:06.060Z,100008.10
2022-10-20T04:11:36.856Z,100007.72
2022-10-20T04:14:07.912Z,100003.02
2022-10-20T04:16:38.572Z,100003.81
2022-10-20T04:19:09.173Z,100003.10
2022-10-20T04:21:39.883Z,100004.81
2022-10-20T04:24:10.546Z,100004.79
2022-10-20T04:26:41.405Z,100002.02
2022-10-20T04:29:12.230Z,99995.98
2022-10-20T04:31:46.690Z,99997.27
2022-10-20T04:34:19.759Z,99991.27
2022-10-20T04:36:50.592Z,99985.30
2022-10-20T04:39:21.333Z,99987.45
2022-10-20T04:41:52.059Z,99987.67
2022-10-20T04:44:22.694Z,99985.81
2022-10-20T04:46:54.966Z,99985.91
2022-10-20T04:49:25.909Z,99981.50
2022-10-20T04:52:00.799Z,99981.29
2022-10-20T04:54:31.891Z,99981.23
2022-10-20T04:57:04.265Z,99974.32
2022-10-20T04:59:34.879Z,99975.38
2022-10-20T05:02:05.710Z,99975.46
2022-10-20T05:04:36.431Z,99976.36
2022-10-20T05:07:07.172Z,99977.45
2022-10-20T05:09:38.113Z,99977.61
2022-10-20T05:12:09.277Z,99978.02
2022-10-20T05:14:39.959Z,99981.70
2022-10-20T05:17:10.559Z,99978.08
2022-10-20T05:19:41.428Z,99980.94
2022-10-20T05:22:12.273Z,99980.81
2022-10-20T05:24:43.098Z,99987.14
2022-10-20T05:27:13.834Z,99988.19
2022-10-20T05:29:44.452Z,99992.70
2022-10-20T05:32:15.413Z,99994.10
2022-10-20T05:34:46.026Z,99997.88
2022-10-20T05:37:16.890Z,100002.71
2022-10-20T05:42:19.390Z,100001.10
2022-10-20T05:44:50.008Z,100003.40
2022-10-20T05:47:20.923Z,100001.80
2022-10-20T05:49:52.250Z,100006.53
2022-10-20T05:52:23.271Z,100011.55
2022-10-20T05:54:53.895Z,100003.21
2022-10-20T05:57:24.560Z,100003.52
2022-10-20T05:59:55.266Z,99999.86
2022-10-20T06:02:26.009Z,99995.64
2022-10-20T06:04:56.669Z,99998.86
2022-10-20T06:07:27.381Z,100003.42
2022-10-20T06:09:58.324Z,100004.15
2022-10-20T06:12:29.271Z,100006.45
2022-10-20T06:14:59.909Z,100005.05
2022-10-20T06:17:30.846Z,100010.54
2022-10-20T06:20:01.482Z,100011.26
2022-10-20T06:22:32.423Z,100010.78
2022-10-20T06:25:03.120Z,100008.85
2022-10-20T06:27:33.799Z,100012.25
2022-10-20T06:30:04.732Z,100012.04
2022-10-20T06:32:35.630Z,100012.38
2022-10-20T06:35:07.626Z,100017.52
2022-10-20T06:37:38.691Z,100017.61
2022-10-20T06:40:11.057Z,100019.64
2022-10-20T06:42:41.687Z,100010.30
2022-10-20T06:45:15.573Z,100014.98
2022-10-20T06:47:47.796Z,100013.80
2022-10-20T06:50:18.902Z,100015.23
2022-10-20T06:52:49.646Z,100014.35
2022-10-20T06:55:20.318Z,100015.65
2022-10-20T06:57:51.046Z,100015.23
2022-10-20T07:00:21.811Z,100013.92
2022-10-20T07:02:52.545Z,100013.95
2022-10-20T07:05:23.229Z,100016.21
2022-10-20T07:07:56.588Z,100020.88
2022-10-20T07:10:27.292Z,100020.83
2022-10-20T07:12:58.030Z,100022.90
2022-10-20T07:15:28.666Z,100021.34
2022-10-20T07:17:59.422Z,100022.02
2022-10-20T07:20:30.042Z,100013.81
2022-10-20T07:23:00.782Z,100006.09
2022-10-20T07:25:32.721Z,100000.20
2022-10-20T07:28:03.480Z,100002.20
2022-10-20T07:30:38.587Z,99999.17
2022-10-20T07:33:09.853Z,100002.31
2022-10-20T07:35:40.912Z,100005.50
2022-10-20T07:38:11.578Z,100010.27
2022-10-20T07:40:42.393Z,100017.30
2022-10-20T07:43:13.229Z,100020.34
2022-10-20T07:45:43.863Z,100011.37
2022-10-20T07:48:14.600Z,100012.48
2022-10-20T07:50:45.234Z,100008.73
2022-10-20T07:53:15.978Z,100009.39
2022-10-20T07:55:47.227Z,100009.52
2022-10-20T07:58:17.965Z,100006.81
2022-10-20T08:00:48.723Z,100009.77
2022-10-20T08:03:19.509Z,100007.27
2022-10-20T08:05:50.228Z,100005.45
2022-10-20T08:08:20.915Z,100004.31
2022-10-20T08:10:51.731Z,99998.84
2022-10-20T08:13:22.917Z,100000.91
2022-10-20T08:15:55.693Z,100000.29
2022-10-20T08:18:32.636Z,100004.00
2022-10-20T08:21:16.644Z,100002.17
2022-10-20T08:23:49.174Z,100005.63
2022-10-20T08:26:22.494Z,100004.50
2022-10-20T08:28:55.153Z,100002.60
2022-10-20T08:31:25.903Z,100012.54
2022-10-20T08:33:56.974Z,100012.52
2022-10-20T08:36:28.321Z,100012.34
2022-10-20T08:39:03.417Z,100009.84
2022-10-20T08:42:07.637Z,100006.02
2022-10-20T08:44:34.508Z,100007.34
2022-10-20T08:47:14.287Z,100005.42
2022-10-20T08:49:48.052Z,100001.45
2022-10-20T08:52:23.897Z,99998.27
2022-10-20T08:54:56.816Z,99992.42
2022-10-20T08:57:33.357Z,99991.11
2022-10-20T09:00:17.428Z,99986.05
2022-10-20T09:02:49.038Z,99984.96
2022-10-20T09:05:24.571Z,99985.67
2022-10-20T09:07:55.952Z,99981.45
2022-10-20T09:10:33.363Z,99981.83
2022-10-20T09:13:09.905Z,99981.66
2022-10-20T09:15:41.572Z,99980.64
2022-10-20T09:18:15.332Z,99978.89
2022-10-20T09:20:52.496Z,99983.88
2022-10-20T09:23:40.752Z,99982.84
2022-10-20T09:26:30.464Z,99982.14
2022-10-20T09:29:14.843Z,99982.09
2022-10-20T09:31:48.218Z,99974.09
2022-10-20T09:34:27.822Z,99969.92
2022-10-20T09:37:04.429Z,99971.05
2022-10-20T09:39:43.153Z,99973.89
2022-10-20T09:42:20.476Z,99964.56
2022-10-20T09:44:54.497Z,99960.70
2022-10-20T09:47:27.959Z,99964.25
2022-10-20T09:50:02.298Z,99961.48
2022-10-20T09:52:40.789Z,99966.92
2022-10-20T09:55:26.613Z,99961.14
2022-10-20T09:57:56.796Z,99955.94
2022-10-20T10:00:37.164Z,99956.29
2022-10-20T10:03:22.066Z,99953.98
2022-10-20T10:05:54.821Z,99953.58
2022-10-20T10:08:28.260Z,99949.20
2022-10-20T10:11:06.464Z,99947.57
2022-10-20T10:13:44.004Z,99948.52
2022-10-20T10:16:16.296Z,99946.38
2022-10-20T10:18:57.242Z,99941.48
2022-10-20T10:21:28.996Z,99934.84
2022-10-20T10:24:02.294Z,99931.20
2022-10-20T10:26:53.095Z,99926.98
2022-10-20T10:29:29.385Z,99926.92
2022-10-20T10:32:05.098Z,99919.98
2022-10-20T10:35:09.097Z,99912.17
2022-10-20T10:37:40.097Z,99910.81
2022-10-20T10:40:18.840Z,99906.17
2022-10-20T10:43:15.933Z,99901.81
2022-10-20T10:45:53.098Z,99892.75
2022-10-20T10:48:48.309Z,99890.24
2022-10-20T10:51:29.130Z,99880.13
2022-10-20T10:54:19.757Z,99883.92
2022-10-20T10:56:52.843Z,99879.54
2022-10-20T10:59:27.639Z,99875.70
2022-10-20T11:02:25.846Z,99867.02
2022-10-20T11:05:17.307Z,99859.54
2022-10-20T11:07:56.722Z,99854.23
2022-10-20T11:10:34.928Z,99849.30
2022-10-20T11:13:24.446Z,99850.80
2022-10-20T11:16:24.669Z,99850.27
2022-10-20T11:19:44.309Z,99844.57
2022-10-20T11:22:24.790Z,99831.44
2022-10-20T11:25:03.892Z,99831.83
2022-10-20T11:27:37.980Z,99819.05
2022-10-20T11:30:18.562Z,99817.21
2022-10-20T11:32:54.967Z,99812.55
2022-10-20T11:35:35.062Z,99807.04
2022-10-20T11:38:18.205Z,99798.21
2022-10-20T11:40:53.752Z,99791.15
2022-10-20T11:43:31.779Z,99794.98
2022-10-20T11:46:06.885Z,99785.52
2022-10-20T11:48:43.279Z,99788.44
2022-10-20T11:51:42.511Z,99786.79
2022-10-20T11:54:33.269Z,99779.46
2022-10-20T11:57:21.328Z,99775.05
2022-10-20T12:00:12.230Z,99766.94
2022-10-20T12:03:14.692Z,99762.20
2022-10-20T12:06:07.591Z,99748.46
2022-10-20T12:08:53.538Z,99750.80
2022-10-20T12:11:31.253Z,99747.45
2022-10-20T12:14:13.901Z,99741.49
2022-10-20T12:17:29.762Z,99738.15
2022-10-20T12:20:39.387Z,99727.36
2022-10-20T12:23:49.324Z,99723.98
2022-10-20T12:27:07.246Z,99718.68
2022-10-20T12:29:56.084Z,99718.02
2022-10-20T12:32:57.800Z,99712.23
2022-10-20T12:36:01.836Z,99713.02
2022-10-20T12:38:32.180Z,99707.09
2022-10-20T12:41:05.043Z,99705.88
2022-10-20T12:43:49.792Z,99703.11
2022-10-20T12:46:23.965Z,99695.31
2022-10-20T12:49:00.344Z,99695.98
2022-10-20T12:51:41.046Z,99691.48
2022-10-20T12:54:26.082Z,99684.48
2022-10-20T12:56:59.744Z,99683.92
2022-10-20T12:59:47.609Z,99684.96
2022-10-20T13:02:35.065Z,99681.38
2022-10-20T13:05:42.957Z,99680.24
2022-10-20T13:08:34.097Z,99681.64
2022-10-20T13:11:40.830Z,99681.94
2022-10-20T13:14:42.934Z,99671.10
2022-10-20T13:17:34.674Z,99671.54
2022-10-20T13:20:19.733Z,99666.77
2022-10-20T13:22:54.229Z,99666.69
2022-10-20T13:25:37.757Z,99663.23
2022-10-20T13:28:19.861Z,99661.48
2022-10-20T13:31:12.488Z,99656.06
2022-10-20T13:34:05.060Z,99654.23
2022-10-20T13:36:56.091Z,99657.27
2022-10-20T13:39:36.079Z,99655.19
2022-10-20T13:42:19.791Z,99650.55
2022-10-20T13:45:03.409Z,99646.39
2022-10-20T13:47:59.354Z,99648.36
2022-10-20T13:50:34.661Z,99642.80
2022-10-20T13:53:20.821Z,99642.76
2022-10-20T13:56:01.577Z,99637.36
2022-10-20T13:58:32.441Z,99637.15
2022-10-20T14:01:06.210Z,99627.23
2022-10-20T14:03:44.857Z,99634.27
2022-10-20T14:06:37.610Z,99630.28
2022-10-20T14:09:21.121Z,99624.52
2022-10-20T14:11:55.398Z,99623.70
2022-10-20T14:14:28.959Z,99612.36
2022-10-20T14:16:59.794Z,99608.02
2022-10-20T14:19:33.682Z,99606.11
2022-10-20T14:22:17.028Z,99601.21
2022-10-20T14:24:49.644Z,99603.73
2022-10-20T14:27:24.439Z,99600.79
2022-10-20T14:29:57.334Z,99608.42
2022-10-20T14:32:31.442Z,99606.78
2022-10-20T14:35:16.597Z,99607.30
2022-10-20T14:37:53.731Z,99611.19
2022-10-20T14:40:27.867Z,99615.75
2022-10-20T14:43:03.693Z,99622.11
2022-10-20T14:45:34.913Z,99610.92
2022-10-20T14:48:08.403Z,99608.04
2022-10-20T14:50:41.186Z,99609.79
2022-10-20T14:53:31.632Z,99608.65
2022-10-20T14:56:03.621Z,99601.73
2022-10-20T14:58:37.986Z,99602.64
2022-10-20T15:01:23.403Z,99610.42
2022-10-20T15:04:17.775Z,99615.87
2022-10-20T15:06:49.179Z,99619.33
2022-10-20T15:09:34.361Z,99617.36
2022-10-20T15:12:15.185Z,99613.49
2022-10-20T15:14:48.907Z,99609.85
2022-10-20T15:17:34.428Z,99608.20
2022-10-20T15:20:33.483Z,99606.77
2022-10-20T15:23:06.101Z,99600.51
2022-10-20T15:25:48.252Z,99592.88
2022-10-20T15:28:38.942Z,99593.22
2022-10-20T15:31:17.461Z,99589.31
2022-10-20T15:33:49.225Z,99588.09
2022-10-20T15:36:22.027Z,99586.64
2022-10-20T15:38:53.264Z,99584.77
2022-10-20T15:41:26.542Z,99585.06
2022-10-20T15:43:57.393Z,99585.39
2022-10-20T15:46:28.187Z,99581.11
2022-10-20T15:48:59.075Z,99581.85
2022-10-20T15:51:32.235Z,99585.81
2022-10-20T15:54:03.173Z,99594.07
2022-10-20T15:56:35.432Z,99597.03
2022-10-20T16:01:41.781Z,99601.05
2022-10-20T16:04:20.132Z,99601.98
2022-10-20T16:06:53.051Z,99608.45
2022-10-20T16:09:24.293Z,99607.11
2022-10-20T16:11:55.380Z,99605.08
2022-10-20T16:14:26.202Z,99600.19
2022-10-20T16:16:59.156Z,99592.20
2022-10-20T16:19:29.987Z,99586.22
2022-10-20T16:22:00.877Z,99590.47
2022-10-20T16:24:31.724Z,99583.84
2022-10-20T16:29:39.539Z,99588.63
2022-10-20T16:32:10.495Z,99590.00
2022-10-20T16:34:41.424Z,99596.27
2022-10-20T16:37:12.266Z,99601.70
2022-10-20T16:39:43.000Z,99601.85
2022-10-20T16:42:13.748Z,99600.60
2022-10-20T16:44:44.592Z,99603.15
2022-10-20T16:47:15.321Z,99603.13
2022-10-20T16:49:45.962Z,99606.80
2022-10-20T16:52:16.801Z,99608.26
2022-10-20T16:54:47.531Z,99606.52
2022-10-20T16:57:18.584Z,99603.58
2022-10-20T16:59:50.209Z,99598.77
2022-10-20T17:02:23.280Z,99593.42
2022-10-20T17:04:54.381Z,99591.20
2022-10-20T17:07:25.425Z,99592.95
2022-10-20T17:09:56.267Z,99593.10
2022-10-20T17:12:27.133Z,99592.57
2022-10-20T17:14:57.945Z,99591.77
2022-10-20T17:17:28.732Z,99586.84
2022-10-20T17:19:59.477Z,99584.61
2022-10-20T17:22:30.352Z,99584.31
2022-10-20T17:25:01.057Z,99581.30
2022-10-20T17:27:31.833Z,99573.08
2022-10-20T17:30:02.898Z,99570.80
2022-10-20T17:32:33.737Z,99569.38
2022-10-20T17:35:05.651Z,99568.70
2022-10-20T17:37:36.531Z,99561.53
2022-10-20T17:40:08.515Z,99558.38
2022-10-20T17:42:39.794Z,99553.27
2022-10-20T17:45:12.143Z,99549.44
2022-10-20T17:47:42.851Z,99550.71
2022-10-20T17:50:13.861Z,99551.30
2022-10-20T17:52:45.150Z,99548.21
2022-10-20T17:55:16.093Z,99547.11
2022-10-20T17:57:46.946Z,99548.91
2022-10-20T18:00:23.102Z,99557.16
2022-10-20T18:03:04.363Z,99560.43
2022-10-20T18:05:38.395Z,99568.54
2022-10-20T18:08:09.449Z,99573.73
2022-10-20T18:10:44.232Z,99576.56
2022-10-20T18:13:15.292Z,99580.15
2022-10-20T18:15:46.340Z,99580.46
2022-10-20T18:18:17.219Z,99576.04
2022-10-20T18:20:56.591Z,99569.00
2022-10-20T18:23:31.567Z,99565.40
2022-10-20T18:26:08.237Z,99563.20
2022-10-20T18:28:41.981Z,99570.17
2022-10-20T18:31:18.411Z,99568.73
2022-10-20T18:33:50.682Z,99566.71
2022-10-20T18:36:21.895Z,99565.37
2022-10-20T18:38:53.523Z,99566.21
2022-10-20T18:41:27.880Z,99569.27
2022-10-20T18:44:00.599Z,99571.92
2022-10-20T18:46:34.639Z,99567.55
2022-10-20T18:49:07.390Z,99559.89
2022-10-20T18:51:38.671Z,99559.49
2022-10-20T18:54:11.041Z,99560.65
2022-10-20T18:56:42.889Z,99560.03
2022-10-20T18:59:16.597Z,99559.24
2022-10-20T19:01:48.555Z,99560.24
2022-10-20T19:04:19.498Z,99557.65
2022-10-20T19:06:50.967Z,99555.37
2022-10-20T19:09:22.872Z,99554.46
2022-10-20T19:11:55.195Z,99552.94
2022-10-20T19:14:26.152Z,99554.81
2022-10-20T19:16:57.179Z,99547.62
2022-10-20T19:19:28.098Z,99534.52
2022-10-20T19:21:59.578Z,99538.56
2022-10-20T19:24:30.267Z,99544.39
2022-10-20T19:27:25.222Z,99545.95
2022-10-20T19:29:53.182Z,99542.75
2022-10-20T19:32:24.224Z,99537.36
2022-10-20T19:34:55.154Z,99534.33
2022-10-20T19:37:25.810Z,99531.09
2022-10-20T19:39:56.541Z,99524.42
2022-10-20T19:42:27.378Z,99533.42
2022-10-20T19:44:58.159Z,99531.32
2022-10-20T19:47:29.072Z,99525.83
2022-10-20T19:49:59.930Z,99523.69
2022-10-20T19:52:30.775Z,99520.48
2022-10-20T19:55:02.091Z,99518.73
2022-10-20T19:57:33.019Z,99512.13
2022-10-20T20:00:03.875Z,99504.98
2022-10-20T20:02:35.320Z,99509.36
2022-10-20T20:05:07.386Z,99504.92
2022-10-20T20:07:38.436Z,99510.85
2022-10-20T20:10:10.860Z,99506.28
2022-10-20T20:12:41.657Z,99502.30
2022-10-20T20:15:12.379Z,99497.99
2022-10-20T20:17:43.912Z,99493.68
2022-10-20T20:20:14.799Z,99491.40
2022-10-20T20:22:45.429Z,99494.30
2022-10-20T20:25:16.265Z,99488.45
2022-10-20T20:27:47.008Z,99486.98
2022-10-20T20:30:18.078Z,99489.96
2022-10-20T20:32:52.079Z,99497.42
2022-10-20T20:35:25.053Z,99502.00
2022-10-20T20:37:56.077Z,99504.48
2022-10-20T20:40:26.903Z,99504.27
2022-10-20T20:42:57.971Z,99497.05
2022-10-20T20:45:29.857Z,99494.90
2022-10-20T20:48:00.503Z,99497.21
2022-10-20T20:50:31.226Z,99495.65
2022-10-20T20:53:01.972Z,99495.73
2022-10-20T20:55:32.674Z,99490.72
2022-10-20T20:58:03.380Z,99489.48
2022-10-20T21:00:34.175Z,99481.41
2022-10-20T21:03:05.012Z,99482.84
2022-10-20T21:05:37.495Z,99480.75
2022-10-20T21:08:08.331Z,99485.27
2022-10-20T21:10:39.605Z,99478.77
2022-10-20T21:13:10.422Z,99471.80
2022-10-20T21:15:41.159Z,99466.23
2022-10-20T21:18:11.901Z,99470.59
2022-10-20T21:20:42.582Z,99471.45
2022-10-20T21:23:13.270Z,99466.60
2022-10-20T21:25:50.152Z,99468.70
2022-10-20T21:28:20.771Z,99463.74
2022-10-20T21:30:51.439Z,99457.20
2022-10-20T21:33:22.156Z,99452.61
2022-10-20T21:35:52.880Z,99451.49
2022-10-20T21:38:28.540Z,99447.61
2022-10-20T21:41:05.866Z,99448.51
2022-10-20T21:43:38.376Z,99444.67
2022-10-20T21:46:17.336Z,99436.58
2022-10-20T21:48:49.930Z,99436.42
2022-10-20T21:51:23.020Z,99426.47
2022-10-20T21:53:57.194Z,99434.25
2022-10-20T21:56:28.668Z,99433.09
2022-10-20T21:58:59.315Z,99432.36
2022-10-20T22:01:30.007Z,99427.30
2022-10-20T22:04:01.309Z,99425.60
2022-10-20T22:06:31.938Z,99427.40
2022-10-20T22:09:02.845Z,99419.35
2022-10-20T22:11:35.555Z,99412.56
2022-10-20T22:14:07.252Z,99387.83
2022-10-20T22:16:41.792Z,99381.96
2022-10-20T22:19:16.053Z,99383.63
2022-10-20T22:21:48.925Z,99393.58
2022-10-20T22:24:20.185Z,99404.58
2022-10-20T22:26:51.838Z,99413.80
2022-10-20T22:29:24.239Z,99422.95
2022-10-20T22:31:54.848Z,99421.39
2022-10-20T22:34:25.510Z,99410.90
2022-10-20T22:36:56.127Z,99409.00
2022-10-20T22:39:26.760Z,99418.86
2022-10-20T22:41:57.397Z,99426.27
2022-10-20T22:44:28.417Z,99432.60
2022-10-20T22:46:59.197Z,99434.16
2022-10-20T22:49:29.935Z,99423.41
2022-10-20T22:52:00.593Z,99421.04
2022-10-20T22:54:31.208Z,99424.53
2022-10-20T22:57:01.943Z,99432.52
2022-10-20T22:59:32.739Z,99433.80
2022-10-20T23:02:03.524Z,99439.76
2022-10-20T23:04:34.135Z,99443.58
2022-10-20T23:07:05.004Z,99428.11
2022-10-20T23:09:36.106Z,99418.79
2022-10-20T23:12:07.464Z,99424.35
2022-10-20T23:14:38.237Z,99432.66
2022-10-20T23:17:08.888Z,99438.81
2022-10-20T23:19:39.510Z,99437.73
2022-10-20T23:22:10.247Z,99441.77
2022-10-20T23:24:40.882Z,99439.98
2022-10-20T23:27:12.027Z,99425.46
2022-10-20T23:29:42.620Z,99414.02
2022-10-20T23:32:13.281Z,99405.95
2022-10-20T23:34:44.038Z,99403.78
2022-10-20T23:37:14.671Z,99408.69
2022-10-20T23:39:45.308Z,99402.70
2022-10-20T23:42:16.134Z,99399.39
2022-10-20T23:44:47.057Z,99389.87
2022-10-20T23:47:17.725Z,99391.57
2022-10-20T23:49:48.669Z,99385.00
2022-10-20T23:52:19.614Z,99386.32
2022-10-20T23:54:50.287Z,99383.77
2022-10-20T23:57:20.916Z,99383.13
2022-10-20T23:59:51.536Z,99383.83
